Tiempo atmosférico en la estación meteorológica de Vitigudino, Salamanca (769 m.)



Fecha
DESCASC
Temp. máxima en grados centígrados (hora)
DESCASC
Temp. mínima en grados centígrados (hora)
DESCASC
Temp. media en grados centígrados
DESCASC
Racha de viento máxima en m/sg (hora)
DESCASC
Velocidad máxima media en intervalos de 10 minutos(hora)
DESCASC
Precipitaciones diarias en mm
DESCASC
Precipitaciones de 00:00 a 06:00 en mm
DESCASC
Precipitaciones de 06:00 a 12:00 en mm
DESCASC
Precipitaciones de 12:00 a 18:00 en mm
DESCASC
Precipitaciones de 18:00 a 24:00 en mm
DESCASC
04-11-2019 13.1 (14:30) 6.2 (00:00) 9.7 17.22 (14:50) 11.94 (14:50) 8.2 0 0 6.6 1.6
14-11-2019 7.4 (01:40) 2.5 (00:00) 5 18.06 (17:30) 11.11 (04:10) 10.4 4.2 1.8 4.4 0
03-11-2019 14.9 (15:40) 8.5 (00:00) 11.7 18.06 (06:00) 11.11 (06:10) 1.4 1 0.4 0 0
02-11-2019 15.9 (13:20) 10.4 (00:00) 13.1 16.11 (23:10) 10.56 (23:40) 3.6 1.6 1.4 0.2 0.4
01-11-2019 19.1 (16:00) 14.3 (00:00) 16.7 15 (16:00) 10.28 (16:00) 1.4 0.2 0 1.2 0
19-10-2019 13.8 (12:40) 8.8 (00:00) 11.3 16.11 (14:10) 10 (20:30) 0.8 0 0.2 0.6 0
05-11-2019 14.6 (13:50) 5.6 (00:00) 10.1 13.89 (13:00) 9.44 (13:00) 1.6 0.6 0.4 0.6 0
07-11-2019 11.3 (11:40) 2.7 (00:00) 7 14.44 (14:30) 9.44 (15:10) 1.8 0 0 1.8 0
15-11-2019 8.1 (16:00) 0.2 (00:00) 4.2 13.61 (00:40) 9.17 (00:30) 0 0 0 0 0
13-11-2019 17.2 (14:00) 6.7 (00:00) 12 14.72 (02:10) 9.17 (00:50) 2.4 2.2 0.2 0 0
10-11-2019 7.8 (14:10) 3.5 (00:00) 5.7 12.5 (15:30) 8.33 (15:20) 0.2 0.2 0 0 0
08-11-2019 11.3 (16:40) 1.1 (08:00) 6.2 12.5 (14:00) 8.33 (14:00) 0 0 0 0 0
12-11-2019 11.8 (12:20) 2 (00:00) 6.9 11.94 (23:59) 7.78 (20:30) 5 0 0 0 5
22-10-2019 14.8 (15:50) 3.1 (05:40) 9 12.22 (16:30) 7.78 (16:10) 0.6 0 0 0 0.6
23-10-2019 8.5 (13:10) 7.1 (00:00) 7.8 10 (12:30) 7.22 (14:50) 14.6 2.8 4.6 6 1.2
18-10-2019 17.6 (15:20) 10.6 (00:00) 14.1 9.44 (00:50) 6.67 (01:10) 1 1 0 0 0
11-11-2019 13.4 (16:20) 3.4 (23:50) 8.4 9.72 (14:50) 6.67 (11:30) 0 0 0 0 0
20-10-2019 14.5 (16:40) 4.7 (00:00) 9.6 9.44 (04:00) 6.67 (00:10) 4.4 0.2 1.2 3 0
28-10-2019 20 (15:50) 8.4 (00:00) 14.2 8.89 (17:00) 6.39 (17:00) 0 0 0 0 0
16-11-2019 10.7 (16:00) -2.6 (-00:0) 4 9.17 (14:50) 6.11 (14:50) 0 0 0 0 0
06-11-2019 14.2 (13:20) 4.2 (00:00) 9.2 8.61 (23:59) 5.83 (14:50) 1.6 0 0 0 1.6
09-11-2019 9.1 (16:50) 1.7 (00:00) 5.4 8.33 (19:50) 5.56 (20:00) 9.8 0 2.8 7 0
30-10-2019 15 (19:30) 12.4 (00:00) 13.7 8.06 (11:50) 5.28 (20:40) 6.4 0 0.2 5.4 0.8
26-10-2019 23.6 (15:30) 6.4 (00:00) 15 8.33 (15:20) 5 (15:20) 0 0 0 0 0
29-10-2019 20.1 (13:50) 11.4 (00:00) 15.8 7.5 (17:20) 4.72 (17:10) 0.4 0.4 0 0 0
24-10-2019 15.5 (16:10) 4.4 (00:00) 10 7.22 (11:50) 4.72 (14:50) 0.2 0 0.2 0 0
25-10-2019 21.7 (17:20) 5.1 (00:00) 13.4 6.67 (17:50) 4.44 (17:50) 0 0 0 0 0
21-10-2019 15.6 (14:50) 1.2 (00:00) 8.4 6.11 (17:50) 3.33 (17:40) 0 0 0 0 0
27-10-2019 22.6 (15:00) 9 (00:00) 15.8 5.28 (15:20) 3.06 (15:30) 0 0 0 0 0
31-10-2019 -- (--) -- (--) -- -- (--) -- (--) -- 0.2 -- 0.2 0

Gráficas

Temp. máximas Temp. mínimas Temp. medias Precipitaciones Rachas de viento máximas Velocidades máximas media en intervalos de 10 minutos

Datos horarios

Fecha y hora oficial Temperatura (ºC) Velocidad del viento (km/h) Dirección del viento Racha (km/h) Dirección de racha Precipitación (mm) Presión (hPa) Tendencia (hPa) Humedad (%)
2019-11-16 23:00:00 3.9 10 Sudoeste 17 Oeste 0 927.9 0.2 79
2019-11-16 22:00:00 3.6 9 Oeste 16 Oeste 0 927.9 0.1 78
2019-11-16 21:00:00 3.9 10 Oeste 17 Oeste 0 927.8 0.4 73
2019-11-16 20:00:00 4.5 11 Oeste 17 Oeste 0 927.7 0.5 73
2019-11-16 19:00:00 4.9 10 Oeste 18 Oeste 0 927.8 0.6 73
2019-11-16 18:00:00 5.8 10 Oeste 25 Oeste 0 927.4 0.3 68
2019-11-16 17:00:00 7.8 17 Oeste 28 Oeste 0 927.2 0.3 63
2019-11-16 16:00:00 10.1 17 Oeste 29 Oeste 0 927.2 -0.1 58
2019-11-16 15:00:00 7.4 19 Noroeste 33 Oeste 0 927.1 -0.4 64
2019-11-16 14:00:00 8.2 14 Oeste 27 Oeste 0 926.9 -0.4 69
2019-11-16 13:00:00 8 19 Oeste 26 Oeste 0 927.3 0.5 73
2019-11-16 12:00:00 6.5 15 Oeste 22 Oeste 0 927.5 1.2 79
2019-11-16 11:00:00 4.5 12 Sudoeste 18 Sudoeste 0 927.3 1.8 85
2019-11-16 10:00:00 1.9 6 Sudoeste 10 Sudoeste 0 926.8 2.2 94
2019-11-16 09:00:00 -1.8 4 Sur 6 Sur 0 926.3 2.3 95
2019-11-16 08:00:00 -2.5 5 Sudoeste 12 Noroeste 0 925.5 1.9 94
2019-11-16 07:00:00 -2 8 Noroeste 13 Oeste 0 924.6 1.2 94
2019-11-16 06:00:00 -1.5 8 Noroeste 16 Oeste 0 924 1 94
2019-11-16 05:00:00 -1.4 10 Noroeste 15 Noroeste 0 923.6 1.2 94
2019-11-16 04:00:00 -1.1 11 Noroeste 15 Oeste 0 923.4 1.1 94
2019-11-16 03:00:00 -1 11 Noroeste 17 Oeste 0 923 1.2 93
2019-11-16 02:00:00 -1.3 5 Oeste 12 Noroeste 0 922.4 1 91
2019-11-16 01:00:00 -0.5 7 Noroeste 15 Noroeste 0 922.3 1.5 91
2019-11-16 00:00:00 0.2 10 Oeste 17 Noroeste 0 921.8 1.5 90
2019-11-15 23:00:00 1.5 13 Noroeste 19 Oeste 0 921.4 1.5 89
2019-11-15 22:00:00 1.9 12 Oeste 21 Oeste 0 920.8 1.5 87
2019-11-15 21:00:00 1.8 8 Oeste 22 Oeste 0 920.3 1.4 85
2019-11-15 20:00:00 2.1 16 Oeste 22 Oeste 0 919.9 1.2 83
2019-11-15 19:00:00 2.5 14 Oeste 27 Noroeste 0 919.3 1 79
2019-11-15 18:00:00 3.8 21 Oeste 34 Oeste 0 918.9 0.3 72
2019-11-15 17:00:00 6.4 23 Oeste 39 Oeste 0 918.7 -0.2 62
2019-11-15 16:00:00 7.8 27 Oeste 39 Oeste 0 918.3 -0.7 58
2019-11-15 15:00:00 7.3 26 Noroeste 39 Noroeste 0 918.6 -0.9 60
2019-11-15 14:00:00 6.9 21 Noroeste 41 Noroeste 0 918.9 -0.4 61
2019-11-15 13:00:00 6.7 25 Noroeste 42 Noroeste 0 919 0 60
2019-11-15 12:00:00 6.1 28 Noroeste 45 Noroeste 0 919.5 0.5 64
2019-11-15 11:00:00 5.5 30 Noroeste 45 Noroeste 0 919.3 0.9 70
2019-11-15 10:00:00 4.1 26 Noroeste 36 Noroeste 0 919 1.1 81
2019-11-15 09:00:00 1 16 Oeste 24 Oeste 0 919 1.4 91
2019-11-15 08:00:00 0.8 17 Oeste 28 Oeste 0 918.4 1.2 89
2019-11-15 07:00:00 1.3 19 Oeste 32 Noroeste 0 917.9 0.5 88
2019-11-15 06:00:00 1.3 21 Noroeste 34 Oeste 0 917.6 0.2 87
2019-11-15 05:00:00 1.2 20 Oeste 33 Noroeste 0 917.2 -0.3 86
2019-11-15 04:00:00 1.5 23 Oeste 37 Oeste 0 917.4 -0.2 84
2019-11-15 03:00:00 1.7 24 Noroeste 40 Noroeste 0 917.4 0 82
2019-11-15 02:00:00 2.2 29 Oeste 47 Noroeste 0 917.5 0 79
2019-11-15 01:00:00 2.7 30 Oeste 49 Noroeste 0 917.6 0.4 78
2019-11-15 00:00:00 3.1 27 Oeste 41 Noroeste 0 917.4 0.6 77
2019-11-14 23:00:00 3.6 27 Oeste 43 Oeste 0 917.5 1.2 80
2019-11-14 22:00:00 3.6 27 Noroeste 45 Oeste 0 917.2 1.8 82
2019-11-14 21:00:00 3.9 28 Oeste 48 Noroeste 0 916.8 1.7 83
2019-11-14 20:00:00 4.2 31 Noroeste 57 Oeste 0 916.3 2.2 81
2019-11-14 19:00:00 4.8 38 Noroeste 65 Noroeste 0 915.4 1.2 81
2019-11-14 18:00:00 5.1 31 Noroeste 65 Oeste 0.2 915.1 0.9 83
2019-11-14 17:00:00 4.7 34 Noroeste 63 Oeste 0.2 914.1 -0.3 86
2019-11-14 16:00:00 5.6 28 Oeste 41 Oeste 0 914.2 -0.8 92
2019-11-14 15:00:00 5.6 25 Oeste 48 Oeste 2.4 914.2 -2.3 93
2019-11-14 14:00:00 4.1 31 Sudoeste 49 Sudoeste 1.6 914.4 -2.9 90
2019-11-14 13:00:00 5.1 28 Sudoeste 53 Sudoeste 0 915 -3.1 85
2019-11-14 12:00:00 5.3 30 Oeste 46 Oeste 0 916.5 -1.6 87
2019-11-14 11:00:00 4.3 22 Oeste 31 Oeste 0.4 917.3 -0.6 94
2019-11-14 10:00:00 3.2 18 Oeste 39 Sudoeste 0.4 918.1 -0.2 93
2019-11-14 09:00:00 3.4 23 Oeste 35 Oeste 0 918.1 -0.2 94
2019-11-14 08:00:00 2.8 10 Oeste 18 Noroeste 0 917.9 0.4 93
2019-11-14 07:00:00 2.8 12 Oeste 40 Noroeste 1 918.3 0.6 93
2019-11-14 06:00:00 2.8 25 Noroeste 50 Oeste 2.4 918.3 -0.3 92
2019-11-14 05:00:00 6.1 34 Oeste 53 Oeste 0.8 917.5 -2 91
2019-11-14 04:00:00 6.8 38 Oeste 56 Oeste 0.6 917.7 -3.3 92
2019-11-14 03:00:00 7.1 33 Oeste 48 Oeste 0.4 918.6 -3.7 93
2019-11-14 02:00:00 7.4 27 Sudoeste 40 Sudoeste 0 919.5 -3.9 86
2019-11-14 01:00:00 7.2 24 Sudoeste 39 Oeste 0 921 -3 85
2019-11-14 00:00:00 7 19 Sudoeste 36 Sudoeste 0 922.3 -1.6 82
2019-11-13 23:00:00 6.9 21 Sudoeste 31 Sudoeste 0 923.4 -1.1 83
2019-11-13 22:00:00 7.5 17 Sudoeste 32 Oeste 0 924 -0.5 83
2019-11-13 21:00:00 7.9 21 Oeste 36 Oeste 0 923.9 -0.7 84
2019-11-13 20:00:00 8.3 22 Oeste 32 Oeste 0 924.5 -0.2 82
2019-11-13 19:00:00 8.6 13 Sudoeste 16 Sudoeste 0 924.5 0 81
2019-11-13 18:00:00 10.9 10 Oeste 22 Oeste 0 924.6 -0.2 74
2019-11-13 17:00:00 14.1 17 Oeste 30 Noroeste 0 924.7 0 64
2019-11-13 16:00:00 15.9 18 Oeste 40 Noroeste 0 924.5 -0.4 59
2019-11-13 15:00:00 16.1 24 Oeste 38 Noroeste 0 924.8 -0.4 57
2019-11-13 14:00:00 16.4 15 Oeste 24 Oeste 0 924.7 -0.4 59
2019-11-13 13:00:00 16.5 14 Oeste 23 Noroeste 0 924.9 0.7 63
2019-11-13 12:00:00 13.7 15 Noroeste 29 Oeste 0 925.2 1.9 68
2019-11-13 11:00:00 13.8 17 Noroeste 28 Noroeste 0 925.1 3.1 79
2019-11-13 10:00:00 12.3 17 Noroeste 23 Noroeste 0.2 924.2 2.9 92
2019-11-13 09:00:00 10.2 14 Oeste 26 Oeste 0 923.3 2.9 94
2019-11-13 08:00:00 10.1 17 Noroeste 26 Noroeste 0 922 2.2 94
2019-11-13 07:00:00 10 15 Oeste 34 Oeste 0 921.3 1.6 94
2019-11-13 06:00:00 10.1 24 Oeste 38 Sudoeste 0 920.4 0.8 95
2019-11-13 05:00:00 10.8 24 Oeste 38 Sudoeste 0 919.8 0 95
2019-11-13 04:00:00 10.8 20 Sudoeste 39 Oeste 0 919.7 -0.6 95
2019-11-13 03:00:00 10.6 28 Sudoeste 53 Sudoeste 0.2 919.6 -1.5 95
2019-11-13 02:00:00 10.4 29 Sudoeste 50 Oeste 0.6 919.8 -2.1 95
2019-11-13 01:00:00 10.1 31 Sudoeste 49 Sudoeste 1.4 920.3 -2.6 95
2019-11-13 00:00:00 9.9 27 Sudoeste 43 Sudoeste 1.6 921.1 -2 95
2019-11-12 23:00:00 9.6 27 Sudoeste 39 Sudoeste 1.2 921.9 -1.7 95
2019-11-12 22:00:00 9.2 21 Sudoeste 35 Sudoeste 2 922.9 -1.1 94
2019-11-12 21:00:00 8.8 24 Sudoeste 42 Sudoeste 0.2 923.1 -1.6 94
2019-11-12 20:00:00 8.3 26 Sudoeste 40 Sudoeste 0 923.6 -1.7 93
2019-11-12 19:00:00 8 17 Sudoeste 26 Sudoeste 0 924 -1.9 92
2019-11-12 18:00:00 7.6 17 Sudoeste 31 Sudoeste 0 924.7 -2 91
2019-11-12 17:00:00 8.3 22 Sudoeste 33 Sudoeste 0 925.3 -2.2 82
2019-11-12 16:00:00 8.8 18 Sudoeste 29 Sudoeste 0 925.9 -2.5 75
2019-11-12 15:00:00 9.4 21 Sudoeste 32 Sudoeste 0 926.7 -2.9 72
2019-11-12 14:00:00 10.2 19 Oeste 26 Oeste 0 927.5 -1.8 70
2019-11-12 13:00:00 10.8 18 Oeste 26 Oeste 0 928.4 -1.3 69
2019-11-12 12:00:00 11.4 17 Oeste 26 Oeste 0 929.6 -0.1 68
2019-11-12 11:00:00 10.2 10 Oeste 19 Noroeste 0 929.3 0.5 73
2019-11-12 10:00:00 7.5 13 Oeste 19 Sudoeste 0 929.7 0.5 87
2019-11-12 09:00:00 3.1 9 Oeste 14 Oeste 0 929.7 0.9 93
2019-11-12 08:00:00 2.3 3 Oeste 9 Noroeste 0 928.8 0.1 93
2019-11-12 07:00:00 2.6 5 Oeste 9 Oeste 0 929.2 0.2 93
2019-11-12 06:00:00 2.7 5 Oeste 8 Oeste 0 928.8 -0.7 93
2019-11-12 05:00:00 2.6 4 Sudoeste 6 Sudoeste 0 928.7 -1.5 93
2019-11-12 04:00:00 2.5 4 Sur 6 Sur 0 929 -1.8 93
2019-11-12 03:00:00 2.3 3 Sudoeste 5 Noroeste 0 929.5 -1.2 92
2019-11-12 02:00:00 2.7 2 Sudeste 8 Sudoeste 0 930.2 -0.3 92
2019-11-12 01:00:00 3.1 2 Sudeste 11 Norte 0 930.8 0.5 89
2019-11-12 00:00:00 3.5 6 Norte 10 Norte 0 930.7 0.6 90
2019-11-11 23:00:00 4.4 3 Norte 14 Norte 0 930.5 0.6 89
2019-11-11 22:00:00 4.4 3 Nordeste 11 Noroeste 0 930.3 0.8 89
2019-11-11 21:00:00 5 7 Noroeste 13 Noroeste 0 930.1 1.4 86
2019-11-11 20:00:00 6.3 11 Noroeste 19 Noroeste 0 929.9 1.4 84
2019-11-11 19:00:00 7.9 17 Noroeste 21 Noroeste 0 929.5 1.4 83
2019-11-11 18:00:00 10 13 Oeste 22 Oeste 0 928.7 0.6 77
2019-11-11 17:00:00 12.5 16 Noroeste 31 Noroeste 0 928.5 0.7 72
2019-11-11 16:00:00 13 17 Oeste 34 Noroeste 0 928.1 0.1 75
2019-11-11 15:00:00 12.8 20 Noroeste 35 Noroeste 0 928.1 -0.5 77
2019-11-11 14:00:00 11.9 22 Noroeste 35 Noroeste 0 927.8 -1 87
2019-11-11 13:00:00 11 20 Oeste 31 Oeste 0 928 -1 94
2019-11-11 12:00:00 10.6 18 Oeste 35 Oeste 0 928.6 0.1 95
2019-11-11 11:00:00 10.3 21 Oeste 30 Oeste 0 928.8 0.6 95
2019-11-11 10:00:00 9.1 17 Oeste 24 Oeste 0 929 0.8 95
2019-11-11 09:00:00 8.4 15 Oeste 25 Oeste 0 928.5 -0.4 95
2019-11-11 08:00:00 7.8 14 Oeste 24 Oeste 0 928.2 -0.6 95
2019-11-11 07:00:00 7.3 15 Oeste 23 Oeste 0 928.2 -0.9 95
2019-11-11 06:00:00 7 11 Sudoeste 19 Sudoeste 0 928.9 -0.6 95
2019-11-11 05:00:00 6.8 10 Sudoeste 19 Sudoeste 0 928.8 -1.2 95
2019-11-11 04:00:00 6.5 15 Oeste 23 Oeste 0 929.1 -1.1 94
2019-11-11 03:00:00 6.4 10 Oeste 17 Oeste 0 929.5 -1.2 94
2019-11-11 02:00:00 6.2 11 Oeste 20 Oeste 0 930 -1.3 94
2019-11-11 01:00:00 6.1 14 Oeste 22 Oeste 0 930.2 -0.5 93
2019-11-11 00:00:00 6 12 Oeste 17 Oeste 0 930.7 0 93
2019-11-10 23:00:00 5.7 13 Oeste 20 Oeste 0 931.3 0.5 92
2019-11-10 22:00:00 5.3 9 Oeste 22 Oeste 0 930.7 -0.2 91
2019-11-10 21:00:00 5.3 15 Oeste 30 Oeste 0 930.7 0.2 88
2019-11-10 20:00:00 5.4 18 Oeste 32 Oeste 0 930.8 0.4 87
2019-11-10 19:00:00 5.6 19 Oeste 31 Oeste 0 930.9 0.7 86
2019-11-10 18:00:00 6 17 Oeste 41 Oeste 0 930.5 0.4 83
2019-11-10 17:00:00 6.2 25 Oeste 42 Oeste 0 930.4 0.3 80
2019-11-10 16:00:00 6.6 25 Oeste 45 Oeste 0 930.2 -0.5 78
2019-11-10 15:00:00 7.4 28 Oeste 45 Noroeste 0 930.1 -1.1 76
2019-11-10 14:00:00 7.7 27 Oeste 39 Oeste 0 930.1 -1.1 78
2019-11-10 13:00:00 7 27 Oeste 44 Oeste 0 930.7 -0.6 80
2019-11-10 12:00:00 7.4 28 Noroeste 43 Noroeste 0 931.2 -0.2 75
2019-11-10 11:00:00 6.9 23 Noroeste 38 Noroeste 0 931.2 0.1 75
2019-11-10 10:00:00 6.8 24 Oeste 35 Noroeste 0 931.3 0.4 81
2019-11-10 09:00:00 4.5 12 Oeste 27 Noroeste 0 931.4 0.6 85
2019-11-10 08:00:00 4.3 18 Noroeste 41 Oeste 0 931.1 0.3 85
2019-11-10 07:00:00 3.7 20 Noroeste 30 Noroeste 0 930.9 0.1 86
2019-11-10 06:00:00 3.7 17 Noroeste 28 Noroeste 0.2 930.8 0 87
2019-11-10 05:00:00 3.8 19 Noroeste 33 Noroeste 0 930.8 -0.4 87
2019-11-10 04:00:00 4.1 19 Noroeste 34 Noroeste 0 930.8 -0.4 86
2019-11-10 03:00:00 4.4 22 Oeste 37 Oeste 0 930.8 -0.3 86
2019-11-10 02:00:00 4.5 22 Oeste 31 Oeste 0 931.2 0.3 86
2019-11-10 01:00:00 5.1 20 Oeste 32 Noroeste 0 931.2 0.7 84
2019-11-10 00:00:00 6.3 15 Noroeste 25 Oeste 0 931.1 0.6 88
2019-11-09 23:00:00 5.9 15 Noroeste 28 Noroeste 0 930.9 0.5 90
2019-11-09 22:00:00 6 12 Oeste 25 Oeste 0 930.5 0.1 93
2019-11-09 21:00:00 6.5 14 Oeste 26 Oeste 0 930.5 0.3 94
2019-11-09 20:00:00 6.8 20 Oeste 30 Oeste 0 930.4 0.6 94
2019-11-09 19:00:00 7.4 13 Oeste 20 Oeste 0 930.4 0.8 94
2019-11-09 18:00:00 8.8 13 Oeste 24 Oeste 0 930.2 0.7 95
2019-11-09 17:00:00 9.1 17 Oeste 29 Sudoeste 0 929.8 0.1 95
2019-11-09 16:00:00 8.3 13 Oeste 24 Sudoeste 0 929.6 -1.1 95
2019-11-09 15:00:00 7.9 16 Sudoeste 27 Sudoeste 1 929.5 -2.2 95
2019-11-09 14:00:00 6.8 14 Sudoeste 25 Sudoeste 4 929.7 -2.6 94
2019-11-09 13:00:00 6.4 13 Sudoeste 27 Sudoeste 2 930.7 -1.8 94
2019-11-09 12:00:00 6.3 19 Sudoeste 26 Sudoeste 0.4 931.7 -1.1 93
2019-11-09 11:00:00 5.8 14 Sudoeste 24 Sudoeste 0 932.3 -0.2 94
2019-11-09 10:00:00 4.9 13 Sudoeste 23 Sudoeste 1.6 932.5 -0.1 94
2019-11-09 09:00:00 4.2 10 Sudoeste 16 Sur 0.6 932.8 -0.1 94
2019-11-09 08:00:00 3.5 10 Sudoeste 14 Sudoeste 0.2 932.5 -0.5 94
2019-11-09 07:00:00 2.8 10 Sudoeste 14 Sur 0 932.6 -0.4 93
2019-11-09 06:00:00 2.7 8 Sudoeste 17 Sudoeste 0 932.9 0.2 93
2019-11-09 05:00:00 1.7 8 Sudoeste 18 Sudoeste 0 933 0 92
2019-11-09 04:00:00 2 10 Sudoeste 17 Sudoeste 0 933 -0.6 91
2019-11-09 03:00:00 2.9 12 Sudoeste 17 Sudoeste 0 932.7 -0.8 91
2019-11-09 02:00:00 3 10 Oeste 18 Sudoeste 0 933 -0.5 91
2019-11-09 01:00:00 3.6 10 Oeste 15 Oeste 0 933.6 0.4 90
2019-11-09 00:00:00 3.2 9 Oeste 17 Oeste 0 933.5 0.8 88
2019-11-08 23:00:00 3.7 8 Oeste 11 Oeste 0 933.5 0.9 88
2019-11-08 22:00:00 4.7 3 Oeste 17 Oeste 0 933.2 1 86
2019-11-08 21:00:00 4.9 9 Oeste 16 Sudoeste 0 932.7 1.2 83
2019-11-08 20:00:00 6.2 9 Oeste 22 Oeste 0 932.6 1.7 82
2019-11-08 19:00:00 7 11 Oeste 25 Oeste 0 932.2 1.7 78
2019-11-08 18:00:00 7.9 16 Oeste 24 Oeste 0 931.5 1.3 72
2019-11-08 17:00:00 9.4 15 Oeste 26 Oeste 0 930.9 0.9 65
2019-11-08 16:00:00 9.4 16 Oeste 27 Oeste 0 930.5 0.5 66
2019-11-08 15:00:00 8.9 19 Oeste 42 Oeste 0 930.2 -0.1 66
2019-11-08 14:00:00 10 30 Noroeste 45 Oeste 0 930 0.2 60
2019-11-08 13:00:00 9.2 21 Noroeste 41 Noroeste 0 930 0.8 66
2019-11-08 12:00:00 9.4 19 Oeste 33 Oeste 0 930.3 1.6 70
2019-11-08 11:00:00 7.7 19 Oeste 37 Oeste 0 929.8 2 76
2019-11-08 10:00:00 6 20 Oeste 28 Oeste 0 929.2 1.9 85
2019-11-08 09:00:00 2.9 17 Oeste 24 Oeste 0 928.7 1.9 94
2019-11-08 08:00:00 1.1 12 Oeste 21 Oeste 0 927.8 1.5 94
2019-11-08 07:00:00 1.6 14 Oeste 18 Sudoeste 0 927.3 1.5 94
2019-11-08 06:00:00 2 9 Sudoeste 17 Sudoeste 0 926.8 1.2 94
2019-11-08 05:00:00 2.2 9 Sudoeste 18 Oeste 0 926.3 0.8 95
2019-11-08 04:00:00 1.8 16 Oeste 20 Oeste 0 925.8 0.4 94
2019-11-08 03:00:00 1.4 13 Oeste 22 Sudoeste 0 925.6 0.3 93
2019-11-08 02:00:00 1.8 8 Oeste 25 Oeste 0 925.5 0 93
2019-11-08 01:00:00 2.5 17 Oeste 26 Oeste 0 925.4 -0.1 93
2019-11-08 00:00:00 2.8 17 Oeste 37 Oeste 0 925.3 0 93
2019-11-07 23:00:00 2.8 17 Oeste 27 Oeste 0 925.5 0.2 94
2019-11-07 22:00:00 2.7 15 Oeste 25 Oeste 0 925.5 0.4 94
2019-11-07 21:00:00 3.3 20 Oeste 31 Oeste 0 925.3 0.3 93
2019-11-07 20:00:00 4.1 19 Oeste 27 Oeste 0 925.3 0.9 93
2019-11-07 19:00:00 3.7 13 Oeste 28 Oeste 0 925.1 0.5 90
2019-11-07 18:00:00 4.8 21 Oeste 49 Oeste 1.2 925 0.2 88
2019-11-07 17:00:00 6.7 23 Oeste 33 Oeste 0 924.4 -0.5 81
2019-11-07 16:00:00 8.5 23 Oeste 51 Oeste 0.6 924.6 -0.9 78
2019-11-07 15:00:00 9.2 32 Oeste 52 Noroeste 0 924.8 -1.3 70
2019-11-07 14:00:00 11 32 Oeste 45 Oeste 0 924.9 -1.1 64
2019-11-07 13:00:00 8.9 21 Oeste 38 Oeste 0 925.5 -0.5 65
2019-11-07 12:00:00 9.8 21 Oeste 45 Oeste 0 926.1 0.4 66
2019-11-07 11:00:00 9 27 Oeste 41 Oeste 0 926 1 68
2019-11-07 10:00:00 7.7 15 Oeste 23 Oeste 0 926 1.3 81
2019-11-07 09:00:00 6 10 Oeste 17 Noroeste 0 925.7 1.1 88
2019-11-07 08:00:00 4.8 9 Oeste 16 Noroeste 0 925 0.8 87
2019-11-07 07:00:00 4.3 7 Noroeste 23 Noroeste 0 924.7 0.8 83
2019-11-07 06:00:00 6.1 16 Noroeste 35 Noroeste 0 924.6 0.9 81
2019-11-07 05:00:00 7.5 21 Noroeste 31 Noroeste 0 924.2 0.5 89
2019-11-07 04:00:00 9.4 20 Oeste 32 Noroeste 0 923.9 -0.1 94
2019-11-07 03:00:00 10.3 17 Oeste 31 Oeste 0 923.7 -0.5 95
2019-11-07 02:00:00 10.6 20 Oeste 34 Sudoeste 0 923.7 -0.9 95
2019-11-07 01:00:00 10.2 17 Sudoeste 32 Sudoeste 0 924 -1.1 95
2019-11-07 00:00:00 9.7 17 Sudoeste 31 Sudoeste 0 924.2 -1.2 95
2019-11-06 23:00:00 9.5 16 Sudoeste 22 Sudoeste 0.2 924.6 -1.2 94
2019-11-06 22:00:00 9.2 14 Sudoeste 26 Sur 0.6 925.1 -1 94
2019-11-06 21:00:00 9.1 17 Sudoeste 27 Sudoeste 0.2 925.4 -0.5 93
2019-11-06 20:00:00 9.6 15 Sudoeste 25 Sudoeste 0.4 925.8 -0.7 92
2019-11-06 19:00:00 9.8 17 Sudoeste 28 Sudoeste 0.2 926.1 -0.8 87
2019-11-06 18:00:00 10.1 19 Sudoeste 28 Sudoeste 0 925.9 -1.1 83
2019-11-06 17:00:00 10.8 13 Sudoeste 22 Sudoeste 0 926.5 -1.4 78
2019-11-06 16:00:00 11.4 17 Oeste 26 Oeste 0 926.9 -1.6 76
2019-11-06 15:00:00 12.3 18 Oeste 30 Oeste 0 927 -2.4 73
2019-11-06 14:00:00 12.9 16 Oeste 26 Oeste 0 927.9 -1.7 68
2019-11-06 13:00:00 13.4 17 Oeste 24 Oeste 0 928.5 -1 72
2019-11-06 12:00:00 10.2 12 Oeste 22 Oeste 0 929.4 0.1 84
2019-11-06 11:00:00 8.9 13 Oeste 19 Oeste 0 929.6 0.5 87
2019-11-06 10:00:00 7.6 13 Oeste 21 Oeste 0 929.5 0.7 91
2019-11-06 09:00:00 6.4 6 Sudoeste 12 Oeste 0 929.3 0.6 92
2019-11-06 08:00:00 5.6 2 Sur 15 Oeste 0 929.1 0.3 93
2019-11-06 07:00:00 5.3 6 Oeste 13 Oeste 0 928.8 0 94
2019-11-06 06:00:00 4.8 11 Oeste 15 Oeste 0 928.7 -0.5 93
2019-11-06 05:00:00 4.2 4 Sudoeste 13 Oeste 0 928.8 -0.3 92
2019-11-06 04:00:00 5 8 Oeste 21 Oeste 0 928.8 -0.5 92
2019-11-06 03:00:00 5.5 5 Sudoeste 19 Oeste 0 929.2 0.1 91
2019-11-06 02:00:00 5.5 12 Oeste 18 Oeste 0 929.1 -0.1 92
2019-11-06 01:00:00 5.8 14 Noroeste 22 Oeste 0 929.3 0.6 89
2019-11-06 00:00:00 5.7 9 Oeste 18 Oeste 0 929.1 1 89
2019-11-05 23:00:00 6.2 16 Oeste 23 Oeste 0 929.2 1.5 89
2019-11-05 22:00:00 6 7 Oeste 22 Oeste 0 928.7 1.6 87
2019-11-05 21:00:00 7.3 14 Oeste 26 Noroeste 0 928.1 1.6 86
2019-11-05 20:00:00 8.9 18 Noroeste 34 Noroeste 0 927.7 1.4 83
2019-11-05 19:00:00 9.4 18 Noroeste 32 Oeste 0 927.1 1.2 79
2019-11-05 18:00:00 10.3 17 Oeste 27 Oeste 0 926.5 1.1 81
2019-11-05 17:00:00 12.5 21 Oeste 37 Oeste 0 926.3 1.4 74
2019-11-05 16:00:00 11.9 26 Oeste 42 Noroeste 0.6 925.9 0.8 79
2019-11-05 15:00:00 11.7 22 Oeste 43 Oeste 0 925.4 0.2 71
2019-11-05 14:00:00 14 28 Oeste 46 Oeste 0 924.9 -0.2 66
2019-11-05 13:00:00 13.5 34 Oeste 50 Oeste 0 925.1 0.5 67
2019-11-05 12:00:00 12.6 27 Oeste 42 Oeste 0 925.2 1.3 77
2019-11-05 11:00:00 9.8 25 Oeste 38 Oeste 0 925.1 2.1 88
2019-11-05 10:00:00 8.5 22 Oeste 33 Oeste 0 924.6 2 94
2019-11-05 09:00:00 7.5 17 Sudoeste 29 Sudoeste 0.2 923.9 1.5 94
2019-11-05 08:00:00 6.7 18 Sudoeste 29 Sudoeste 0.2 923 1.1 93
2019-11-05 07:00:00 6.5 18 Sudoeste 29 Sudoeste 0 922.6 1 91
2019-11-05 06:00:00 6.4 18 Sudoeste 29 Sudoeste 0.2 922.4 0.6 92
2019-11-05 05:00:00 5.8 18 Sudoeste 35 Sudoeste 0 921.9 0.3 91
2019-11-05 04:00:00 6.4 26 Sudoeste 34 Sudoeste 0.4 921.6 0.1 92
2019-11-05 03:00:00 6.4 20 Oeste 36 Sudoeste 0 921.8 0.4 91
2019-11-05 02:00:00 6.5 24 Sudoeste 39 Sudoeste 0 921.6 0.1 89
2019-11-05 01:00:00 6.4 18 Oeste 33 Oeste 0 921.5 0.5 91
2019-11-05 00:00:00 6.2 19 Oeste 28 Oeste 0 921.4 0.6 89
2019-11-04 23:00:00 6.3 18 Oeste 33 Oeste 0.2 921.5 0.7 88
2019-11-04 22:00:00 7 23 Oeste 44 Oeste 0.2 921 0.6 89
2019-11-04 21:00:00 7.6 23 Oeste 34 Oeste 0.2 920.8 1 91
2019-11-04 20:00:00 8 25 Oeste 35 Oeste 0.2 920.8 1 91
2019-11-04 19:00:00 8.3 19 Oeste 36 Oeste 0.8 920.4 0.6 91
2019-11-04 18:00:00 9.5 21 Oeste 33 Oeste 1.4 919.8 0.1 89
2019-11-04 17:00:00 10.8 19 Oeste 44 Oeste 0 919.8 0.1 83
2019-11-04 16:00:00 11.2 28 Oeste 48 Oeste 0 919.8 -0.4 82
2019-11-04 15:00:00 12.3 32 Oeste 62 Oeste 0.2 919.7 -1.1 91
2019-11-04 14:00:00 12.1 31 Oeste 43 Oeste 3 919.7 -1.5 94
2019-11-04 13:00:00 11.6 23 Oeste 53 Sudoeste 2 920.2 -1.4 93
2019-11-04 12:00:00 12 30 Sudoeste 53 Sudoeste 0 920.8 -1.1 90
2019-11-04 11:00:00 11.3 27 Sudoeste 44 Sudoeste 0 921.2 -0.8 89
2019-11-04 10:00:00 11.8 32 Sudoeste 54 Sudoeste 0 921.6 -0.7 84
2019-11-04 09:00:00 11.4 31 Sudoeste 50 Sudoeste 0 921.9 -0.9 88
2019-11-04 08:00:00 11.1 27 Sudoeste 42 Sudoeste 0 922 -0.7 89
2019-11-04 07:00:00 11.2 29 Sudoeste 56 Sudoeste 0 922.3 -0.5 87
2019-11-04 06:00:00 10.9 22 Sudoeste 47 Sudoeste 0 922.8 -0.6 88
2019-11-04 05:00:00 11 29 Sudoeste 49 Oeste 0 922.7 -1.2 87
2019-11-04 04:00:00 11.3 32 Sudoeste 50 Sudoeste 0 922.8 -1.2 90
2019-11-04 03:00:00 11.3 29 Sudoeste 43 Sudoeste 0 923.4 -0.9 89
2019-11-04 02:00:00 11.4 22 Sudoeste 42 Sudoeste 0 923.9 -0.6 90
2019-11-04 01:00:00 11.6 26 Sudoeste 50 Sudoeste 0 924 -0.3 91
2019-11-04 00:00:00 12 31 Sudoeste 54 Oeste 0 924.3 -0.2 92
2019-11-03 23:00:00 12.1 30 Sudoeste 49 Sudoeste 0 924.5 -0.2 92
2019-11-03 22:00:00 12 32 Sudoeste 50 Sudoeste 0 924.3 -0.3 91
2019-11-03 21:00:00 11.7 26 Sudoeste 41 Sudoeste 0 924.5 0.5 90
2019-11-03 20:00:00 11.5 24 Sudoeste 40 Oeste 0 924.7 1 89
2019-11-03 19:00:00 11.7 24 Sudoeste 42 Oeste 0 924.6 1 85
2019-11-03 18:00:00 12.3 26 Sudoeste 37 Oeste 0 924 0.5 80
2019-11-03 17:00:00 12.8 23 Oeste 38 Oeste 0 923.7 0.4 74
2019-11-03 16:00:00 14.8 26 Oeste 43 Oeste 0 923.6 0.4 68
2019-11-03 15:00:00 12.7 25 Oeste 43 Oeste 0 923.5 0.4 72
2019-11-03 14:00:00 12.4 21 Oeste 45 Oeste 0 923.3 1.2 69
2019-11-03 13:00:00 12.1 25 Oeste 42 Noroeste 0 923.2 1.5 69
2019-11-03 12:00:00 12.4 28 Oeste 47 Oeste 0 923.1 2.8 72
2019-11-03 11:00:00 11.3 26 Oeste 42 Oeste 0 922.1 3.2 73
2019-11-03 10:00:00 10 20 Oeste 37 Oeste 0 921.7 3.6 79
2019-11-03 09:00:00 10 26 Oeste 39 Oeste 0 920.3 3.3 83
2019-11-03 08:00:00 8.5 28 Oeste 53 Oeste 0 918.9 2.5 84
2019-11-03 07:00:00 10 40 Oeste 59 Oeste 0.4 918.1 2.2 88
2019-11-03 06:00:00 11.5 37 Oeste 65 Oeste 0.2 917 0.5 94
2019-11-03 05:00:00 11.6 33 Oeste 57 Sudoeste 0 916.4 -0.7 94
2019-11-03 04:00:00 11.3 26 Sudoeste 46 Sudoeste 0.2 915.9 -1.9 94
2019-11-03 03:00:00 10.9 31 Sudoeste 48 Sudoeste 0.4 916.5 -1.5 94
2019-11-03 02:00:00 10.5 28 Sudoeste 60 Sudoeste 0.2 917.1 -1.3 93
2019-11-03 01:00:00 10.4 24 Sudoeste 52 Sudoeste 0 917.8 -1.2 92
2019-11-03 00:00:00 10.5 33 Sudoeste 58 Oeste 0.2 918 -1.5 89
2019-11-02 23:00:00 10.8 37 Sudoeste 56 Sudoeste 0.2 918.4 -1.7 92
2019-11-02 22:00:00 11.1 31 Sudoeste 47 Sudoeste 0 919 -1.4 87
2019-11-02 21:00:00 11.4 28 Sudoeste 46 Sudoeste 0 919.5 -1.1 86
2019-11-02 20:00:00 11.7 26 Sudoeste 42 Sudoeste 0 920.1 -1 83
2019-11-02 19:00:00 11.7 26 Sudoeste 50 Sudoeste 0 920.4 -0.7 78
2019-11-02 18:00:00 12.4 19 Sudoeste 33 Sudoeste 0 920.6 -1 83
2019-11-02 17:00:00 13.1 24 Sudoeste 44 Sudoeste 0 921.1 -0.3 82
2019-11-02 16:00:00 13.8 25 Oeste 45 Oeste 0.2 921.1 -1.1 81
2019-11-02 15:00:00 14.6 29 Oeste 48 Sudoeste 0 921.6 -1.2 81
2019-11-02 14:00:00 15.4 28 Sudoeste 46 Sudoeste 0 921.4 -2.2 82
2019-11-02 13:00:00 15.6 26 Sudoeste 41 Sudoeste 0 922.2 -1.6 84
2019-11-02 12:00:00 14.7 24 Sudoeste 37 Sudoeste 0.4 922.8 -0.9 91
2019-11-02 11:00:00 13.9 21 Sudoeste 39 Sudoeste 0 923.6 0.2 91
2019-11-02 10:00:00 13.9 23 Sudoeste 36 Sudoeste 0 923.8 0.2 92
2019-11-02 09:00:00 13.4 21 Sudoeste 34 Sudoeste 0 923.7 -0.4 94
2019-11-02 08:00:00 13.1 24 Sudoeste 37 Sudoeste 0 923.4 -1.1 94
2019-11-02 07:00:00 13.1 25 Sudoeste 39 Sudoeste 1 923.6 -1.3 94
2019-11-02 06:00:00 13.5 20 Sudoeste 35 Sudoeste 1.6 924.1 -1.5 93
2019-11-02 05:00:00 13.7 21 Sudoeste 33 Sudoeste 0 924.5 -1.8 93
2019-11-02 04:00:00 13.5 22 Sudoeste 34 Sudoeste 0 924.9 -1.9 93
2019-11-02 03:00:00 13.7 21 Sudoeste 34 Sudoeste 0 925.6 -2 93
2019-11-02 02:00:00 14.1 21 Sudoeste 33 Sudoeste 0 926.3 -1.8 94
2019-11-02 01:00:00 14.2 20 Sudoeste 27 Sudoeste 0 926.8 -1.3 94
2019-11-02 00:00:00 14.3 8 Sudoeste 24 Sudoeste 0 927.6 -0.7 93
2019-11-01 23:00:00 14.5 19 Sudoeste 31 Sudoeste 0 928.1 -0.9 93
2019-11-01 22:00:00 14.5 19 Sudoeste 30 Sudoeste 0 928.1 -0.9 93
2019-11-01 21:00:00 14.6 19 Sudoeste 28 Sudoeste 0 928.3 -0.9 93
2019-11-01 20:00:00 14.8 15 Sudoeste 28 Sudoeste 0 929 -0.7 93
2019-11-01 19:00:00 15 19 Sudoeste 32 Sudoeste 0 929 -0.6 92
2019-11-01 18:00:00 15.4 22 Sudoeste 40 Sudoeste 0.8 929.2 -0.8 92
2019-11-01 17:00:00 16.1 27 Sudoeste 49 Oeste 0.2 929.7 -1.3 88
2019-11-01 16:00:00 19.1 37 Oeste 54 Sudoeste 0 929.6 -2.3 74
2019-11-01 15:00:00 17.3 35 Sudoeste 52 Sudoeste 0 930 -2.4 84
2019-11-01 14:00:00 16.4 28 Sudoeste 50 Sudoeste 0 931 -2.1 88
2019-11-01 13:00:00 17.4 30 Sudoeste 49 Sudoeste 0.2 931.9 -1.6 83
2019-11-01 12:00:00 16.6 27 Sudoeste 43 Sudoeste 0 932.4 -1.2 90
2019-11-01 11:00:00 16.4 21 Sudoeste 32 Sudoeste 0 933.1 -0.3 90
2019-11-01 10:00:00 15.8 21 Sudoeste 33 Sudoeste 0 933.5 -0.1 93
2019-11-01 09:00:00 15.6 23 Sudoeste 33 Sudoeste 0 933.6 -0.4 93
2019-11-01 08:00:00 15.3 17 Sudoeste 29 Sudoeste 0 933.4 -0.8 94
2019-11-01 07:00:00 15.3 17 Sudoeste 27 Sudoeste 0 933.6 -0.9 93
2019-11-01 06:00:00 15.5 13 Sudoeste 28 Sudoeste 0 934 -1 94
2019-11-01 05:00:00 15.4 17 Sudoeste 28 Oeste 0 934.2 -1.2 94
2019-11-01 04:00:00 15.4 17 Sudoeste 24 Sudoeste 0 934.5 -1.2 94
2019-11-01 03:00:00 15.3 18 Sudoeste 28 Sudoeste 0.2 935 -1 94
2019-11-01 02:00:00 15.4 18 Sudoeste 27 Oeste 0 935.4 -0.6 94
2019-11-01 01:00:00 15.4 14 Sudoeste 26 Sudoeste 0 935.7 -0.2 94
2019-11-01 00:00:00 15.3 14 Sudoeste 19 Sudoeste 0 936 0.5 94
2019-10-31 23:00:00 15.5 10 Sudoeste 20 Sudoeste 0 936 0.5 93
2019-10-31 22:00:00 15.8 14 Sudoeste 22 Sudoeste 0 935.9 0.5 93
2019-10-31 21:00:00 15.9 13 Sudoeste 23 Sudoeste 0 935.5 0.2 93
2019-10-31 20:00:00 16.1 15 Sudoeste 23 Oeste 0 935.5 0.3 93
2019-10-31 19:00:00 16.2 14 Sudoeste 22 Sudoeste 0 935.4 0.3 93
2019-10-31 18:00:00 16.2 13 Sudoeste 23 Sudoeste 0 935.3 0.1 92
2019-10-31 17:00:00 16.5 12 Sudoeste 17 Sudoeste 0.2 935.2 -0.5 89
2019-10-31 16:00:00 17.4 9 Sudoeste 18 Sudoeste 0 935.1 -1.1 86
2019-10-31 15:00:00 18.1 8 Oeste 17 Oeste 0 935.2 -1.5 79
2019-10-31 14:00:00 17.7 12 Sudoeste 20 Oeste 0 935.7 -1.1 79
2019-10-31 13:00:00 17.9 16 Oeste 24 Oeste 0 936.2 -0.2 78
2019-10-31 12:00:00 17.2 15 Oeste 23 Oeste 0 936.7 -- 87
2019-10-31 11:00:00 15.9 14 Sudoeste 22 Sudoeste 0 936.8 1.2 92
2019-10-31 10:00:00 14.5 11 Sudoeste -- -- -- 936.4 1.3 95
2019-10-31 09:00:00 -- -- -- -- -- -- -- -- --
2019-10-31 08:00:00 13 8 Sudoeste 13 Sudoeste 0 935.6 0.5 95
2019-10-31 07:00:00 13.3 8 Sudoeste 15 Sudoeste 0 935.1 0.1 95
2019-10-31 06:00:00 13.4 9 Sudoeste 21 Sudoeste 0 935.1 0 95
2019-10-31 05:00:00 13.6 12 Sudoeste 20 Oeste 0 935.1 0 95
2019-10-31 04:00:00 14.1 14 Oeste 22 Oeste 0 935 0 95
2019-10-31 03:00:00 14.3 10 Sudoeste 17 Sudoeste 0 935.1 0 95
2019-10-31 02:00:00 14.5 10 Sudoeste 20 Sudoeste 0.2 935.1 -0.2 95
2019-10-31 01:00:00 14.7 13 Sudoeste 22 Sudoeste 0 935 0.1 95
2019-10-31 00:00:00 14.9 13 Sudoeste 23 Sudoeste 0 935.1 0.7 95
2019-10-30 23:00:00 15 14 Oeste 22 Oeste 0 935.3 1 95
2019-10-30 22:00:00 15 12 Oeste 24 Sudoeste 0.2 934.9 1.1 95
2019-10-30 21:00:00 14.9 16 Sudoeste 28 Sudoeste 0.2 934.4 1.2 94
2019-10-30 20:00:00 15 13 Sudoeste 20 Sudoeste 0 934.3 1.3 94
2019-10-30 19:00:00 14.9 15 Sudoeste 27 Sudoeste 0.4 933.8 0.5 94
2019-10-30 18:00:00 14.7 10 Sudoeste 21 Sudoeste 0.6 933.2 0.1 93
2019-10-30 17:00:00 14.9 10 Sudoeste 19 Sur 1.2 933 -0.4 93
2019-10-30 16:00:00 14.6 8 Sur 18 Sudoeste 2.4 933.3 -0.5 92
2019-10-30 15:00:00 14.6 12 Sur 25 Sur 0.6 933.1 -1.4 90
2019-10-30 14:00:00 14.7 14 Sur 29 Sudoeste 0.4 933.4 -0.7 88
2019-10-30 13:00:00 14.6 14 Sur 26 Sudoeste 0.2 933.8 -0.3 86
2019-10-30 12:00:00 14.3 17 Sudoeste 29 Sudoeste 0.2 934.5 0.4 88
2019-10-30 11:00:00 14.3 15 Sudoeste 23 Sudoeste 0 934.1 1 90
2019-10-30 10:00:00 13.5 9 Sudoeste 16 Sudoeste 0 934.1 1.3 92
2019-10-30 09:00:00 12.8 7 Sudoeste 12 Sudoeste 0 934.1 1.4 92
2019-10-30 08:00:00 12.8 5 Sur 12 Sur 0 933.1 0.3 92
2019-10-30 07:00:00 12.7 6 Sur 10 Sudeste 0 932.8 -0.1 91
2019-10-30 06:00:00 12.8 6 Sur 11 Sudoeste 0 932.7 -0.6 91
2019-10-30 05:00:00 12.9 5 Sudoeste 10 Sur 0 932.8 -0.1 90
2019-10-30 04:00:00 12.8 6 Sudoeste 8 Sudoeste 0 932.9 0 90
2019-10-30 03:00:00 12.4 4 Sudoeste 8 Sudeste 0 933.3 0.6 87
2019-10-30 02:00:00 13.2 4 Sur 8 Sudoeste 0 932.9 -0.2 87
2019-10-30 01:00:00 13 3 Sur 8 Sudeste 0 932.9 0.1 86
2019-10-30 00:00:00 13.3 5 Sur 8 Sur 0 932.7 0.4 84
2019-10-29 23:00:00 13.5 3 Sur 9 Sudoeste 0 933.1 1 84
2019-10-29 22:00:00 13.6 6 Sur 9 Sur 0 932.8 1.2 83
2019-10-29 21:00:00 14.4 4 Sur 6 Sudoeste 0 932.3 1.1 80
2019-10-29 20:00:00 14.6 3 Sudeste 5 Este 0 932.1 1 79
2019-10-29 19:00:00 15.3 2 Sudoeste 8 Sudoeste 0 931.6 0.8 76
2019-10-29 18:00:00 16 6 Sudoeste 27 Oeste 0 931.2 0.9 73
2019-10-29 17:00:00 17 12 Oeste 23 Sudoeste 0 931.1 0.7 66
2019-10-29 16:00:00 17.5 10 Sudoeste 21 Oeste 0 930.8 -0.2 64
2019-10-29 15:00:00 18.5 5 Sudoeste 15 Sur 0 930.3 -0.8 57
2019-10-29 14:00:00 19.7 5 Oeste 20 Sudoeste 0 930.4 -0.7 55
2019-10-29 13:00:00 18.9 12 Sudoeste 20 Oeste 0 931 0.2 62
2019-10-29 12:00:00 18.1 4 Sur 17 Sudoeste 0 931.1 0.6 66
2019-10-29 11:00:00 16.3 7 Sudoeste 15 Sudeste 0 931.1 1.3 77
2019-10-29 10:00:00 13.3 6 Sur 15 Sudoeste 0 930.8 1.4 93
2019-10-29 09:00:00 11.9 10 Sudoeste 16 Sudoeste 0 930.5 1.3 95
2019-10-29 08:00:00 11.8 6 Sudoeste 10 Sur 0 929.8 0.8 94
2019-10-29 07:00:00 11.9 4 Sudoeste 13 Sudoeste 0 929.4 0.5 94
2019-10-29 06:00:00 11.6 9 Sudoeste 14 Sudoeste 0 929.2 0.1 93
2019-10-29 05:00:00 12.8 6 Sudoeste 13 Sudoeste 0 929 -0.2 93
2019-10-29 04:00:00 13.1 8 Sudoeste 13 Sudoeste 0.2 928.9 -0.6 93
2019-10-29 03:00:00 13.1 7 Sudoeste 11 Sudoeste 0.2 929.1 -0.4 91
2019-10-29 02:00:00 13.1 4 Sur 11 Sudoeste 0 929.2 -0.4 90
2019-10-29 01:00:00 12.8 4 Sudoeste 9 Sudoeste 0 929.5 -0.1 88
2019-10-29 00:00:00 13.7 5 Sur 11 Sudoeste 0 929.5 0.3 89
2019-10-28 23:00:00 13.8 6 Sur 11 Sur 0 929.6 0.5 87
2019-10-28 22:00:00 13.2 5 Sudoeste 12 Sudoeste 0 929.6 0.5 88
2019-10-28 21:00:00 13.6 5 Sur 18 Sudoeste 0 929.2 0.4 85
2019-10-28 20:00:00 13.9 12 Sudoeste 16 Sudoeste 0 929.1 -0.1 84
2019-10-28 19:00:00 15 5 Sudoeste 12 Sudoeste 0 929.1 0.1 80
2019-10-28 18:00:00 16.2 9 Sudoeste 21 Oeste 0 928.8 -0.1 78
2019-10-28 17:00:00 17.5 23 Oeste 32 Sudoeste 0 929.2 -0.2 72
2019-10-28 16:00:00 19.9 13 Sudoeste 21 Sudoeste 0 929 -0.9 60
2019-10-28 15:00:00 19.6 13 Sudoeste 19 Sudoeste 0 928.9 -1.6 59
2019-10-28 14:00:00 19.2 13 Sudoeste 26 Sudoeste 0 929.4 -1.1 58
2019-10-28 13:00:00 18.9 16 Sudoeste 28 Sudoeste 0 929.9 -0.4 60
2019-10-28 12:00:00 18.1 19 Sudoeste 31 Sudoeste 0 930.5 0.6 63
2019-10-28 11:00:00 16.8 18 Sudoeste 28 Sudoeste 0 930.5 1.1 71
2019-10-28 10:00:00 15.3 12 Sudoeste 18 Sudoeste 0 930.3 1.2 66
2019-10-28 09:00:00 12.2 3 Sur 8 Sur 0 929.9 0.8 77
2019-10-28 08:00:00 8.4 4 Sudeste 7 Sur 0 929.4 0.2 84
2019-10-28 07:00:00 8.6 4 Sur 8 Sur 0 929.1 -0.3 83
2019-10-28 06:00:00 9.2 4 Sudeste 7 Sur 0 929.1 -0.5 81
2019-10-28 05:00:00 9.6 4 Sur 6 Sur 0 929.2 -0.5 78
2019-10-28 04:00:00 10.7 4 Sur 7 Sur 0 929.4 -0.6 75
2019-10-28 03:00:00 12.6 4 Sudeste 8 Sur 0 929.6 -0.9 67
2019-10-28 02:00:00 13.1 5 Sur 10 Sur 0 929.7 -1.2 63
2019-10-28 01:00:00 13.2 4 Sur 11 Sudeste 0 930 -1 64
2019-10-28 00:00:00 13.4 4 Sur 7 Sur 0 930.5 -0.3 66
2019-10-27 23:00:00 13.3 4 Sur 7 Sur 0 930.9 0.4 67
2019-10-27 22:00:00 13.6 3 Sudeste 9 Sudeste 0 931 0.5 66
2019-10-27 21:00:00 14.8 4 Sur 9 Sudeste 0 930.8 0.6 59
2019-10-27 20:00:00 15.3 4 Nordeste 9 Sur 0 930.5 0.3 58
2019-10-27 19:00:00 16.5 5 Sudeste 9 Sudeste 0 930.5 0.1 52
2019-10-27 18:00:00 17.8 6 Sudeste 9 Sudeste 0 930.2 -0.3 51
2019-10-27 17:00:00 19 7 Sudoeste 14 Sudoeste 0 930.2 -0.5 44
2019-10-27 16:00:00 20.5 8 Sudoeste 19 Sudoeste 0 930.4 -0.9 40
2019-10-27 15:00:00 22.5 8 Sudoeste 18 Sudoeste 0 930.5 -1.5 38
2019-10-27 14:00:00 20.8 6 Sur 14 Sur 0 930.7 -1.3 34
2019-10-27 13:00:00 19.7 4 Sur 8 Sur 0 931.3 -1 44
2019-10-27 12:00:00 18.4 5 Sudeste 10 Sudeste 0 932 0 50
2019-10-27 11:00:00 16.8 5 Sur 8 Sudeste 0 932 0.5 55
2019-10-27 10:00:00 13.2 3 Este 5 Este 0 932.3 1.1 71
2019-10-27 09:00:00 11.6 2 Este 9 Este 0 932 0.9 72
2019-10-27 08:00:00 10.3 4 Sudeste 7 Sudeste 0 931.5 0.7 72
2019-10-27 07:00:00 9.7 3 Este 6 Sudeste 0 931.2 0.1 74
2019-10-27 06:00:00 10.3 3 Sur 8 Este 0 931.1 -0.4 72
2019-10-27 05:00:00 10.4 6 Este 14 Sudeste 0 930.8 -1.3 75
2019-10-27 04:00:00 10.1 6 Sudeste 13 Este 0 931.1 -1.2 80
2019-10-27 03:00:00 9.5 5 Este 6 Este 0 931.5 -1 84
2019-10-27 02:00:00 9.5 4 Sudeste 5 Sudeste 0 932.1 -0.4 84
2019-10-27 01:00:00 9.9 2 Sudeste 5 Sudeste 0 932.5 0.5 80
2019-10-27 00:00:00 10.7 4 Este 11 Sur 0 932.5 0.7 77
2019-10-26 23:00:00 11.3 6 Sur 9 Sur 0 932.3 0.8 74
2019-10-26 22:00:00 12.3 7 Sur 8 Sudoeste 0 932 0.9 68
2019-10-26 21:00:00 13.8 4 Sur 7 Sudoeste 0 931.8 1.2 62
2019-10-26 20:00:00 15.9 4 Sudoeste 10 Sudoeste 0 931.5 0.8 53
2019-10-26 19:00:00 18.9 6 Sudoeste 22 Sudoeste 0 931.1 0.3 43
2019-10-26 18:00:00 22.1 12 Sudoeste 27 Sudoeste 0 930.6 -0.3 33
2019-10-26 17:00:00 22.7 15 Sudoeste 29 Sudoeste 0 930.7 -0.8 32
2019-10-26 16:00:00 23.3 16 Sudoeste 30 Sudoeste 0 930.8 -1.4 30
2019-10-26 15:00:00 23.1 13 Sur 26 Sur 0 930.9 -1.3 34
2019-10-26 14:00:00 22.3 12 Sudoeste 20 Sudoeste 0 931.5 -0.6 39
2019-10-26 13:00:00 20.7 9 Sudoeste 15 Sudoeste 0 932.2 0.4 45
2019-10-26 12:00:00 18.2 8 Sudoeste 15 Sudoeste 0 932.2 0.8 58
2019-10-26 11:00:00 15.6 6 Sur 13 Sudoeste 0 932.1 1.2 59
2019-10-26 10:00:00 11 4 Este 8 Este 0 931.8 1 77
2019-10-26 09:00:00 6.6 6 Nordeste 7 Nordeste 0 931.4 0.8 84
2019-10-26 08:00:00 6.9 6 Nordeste 7 Nordeste 0 930.9 0.1 84
2019-10-26 07:00:00 7.9 5 Sudeste 7 Sudeste 0 930.8 -0.4 81
2019-10-26 06:00:00 8.8 4 Sudeste 6 Sudeste 0 930.6 -1 78
2019-10-26 05:00:00 10.2 4 Este 12 Sudeste 0 930.8 -1.3 70
2019-10-26 04:00:00 11.2 8 Sudeste 13 Sudeste 0 931.2 -1.2 67
2019-10-26 03:00:00 10.6 4 Este 13 Sudeste 0 931.6 -1 70
2019-10-26 02:00:00 12 9 Sudeste 14 Sudeste 0 932.1 -0.7 65
2019-10-26 01:00:00 10 5 Este 13 Este 0 932.4 -0.2 72
2019-10-26 00:00:00 9.8 7 Este 10 Sudeste 0 932.6 0 74
2019-10-25 23:00:00 10.9 3 Sudeste 8 Sudeste 0 932.8 0.4 71
2019-10-25 22:00:00 11.9 3 Sudeste 7 Sur 0 932.6 0.5 66
2019-10-25 21:00:00 13.3 4 Sudeste 7 Sur 0 932.6 0.4 62
2019-10-25 20:00:00 15.5 3 Sudeste 11 Sur 0 932.4 0.1 54
2019-10-25 19:00:00 18 10 Sudoeste 22 Sudoeste 0 932.1 -0.6 44
2019-10-25 18:00:00 20.8 13 Sudoeste 24 Sudoeste 0 932.2 -0.9 34
2019-10-25 17:00:00 21.6 7 Sur 22 Sudoeste 0 932.3 -1.5 37
2019-10-25 16:00:00 21 10 Sudoeste 19 Sur 0 932.7 -1.9 38
2019-10-25 15:00:00 20.1 11 Sudoeste 17 Sur 0 933.1 -1.8 45
2019-10-25 14:00:00 18.8 3 Sudeste 13 Sudeste 0 933.8 -1.2 53
2019-10-25 13:00:00 17.4 4 Sudeste 9 Sudeste 0 934.6 -0.4 60
2019-10-25 12:00:00 15.5 4 Sudoeste 10 Oeste 0 934.9 0.7 63
2019-10-25 11:00:00 12.9 2 Sur 4 Sudeste 0 935 1.2 80
2019-10-25 10:00:00 8.9 0 Calma 5 Este 0 935 1.2 95
2019-10-25 09:00:00 5.3 4 Este 7 Nordeste 0 934.2 0.3 94
2019-10-25 08:00:00 6.2 5 Nordeste 11 Este 0 933.8 -0.1 94
2019-10-25 07:00:00 6.8 8 Este 11 Este 0 933.8 -0.3 94
2019-10-25 06:00:00 6.9 5 Este 10 Este 0 933.9 -0.4 94
2019-10-25 05:00:00 6.8 4 Este 8 Este 0 933.9 -0.9 94
2019-10-25 04:00:00 6.3 4 Este 9 Este 0 934.1 -0.5 93
2019-10-25 03:00:00 6.1 6 Este 9 Este 0 934.3 -0.2 92
2019-10-25 02:00:00 6.8 2 Sur 5 Sur 0 934.8 0.5 92
2019-10-25 01:00:00 7.3 0 Calma 4 Nordeste 0 934.6 0.5 90
2019-10-25 00:00:00 8.2 2 Nordeste 4 Oeste 0 934.5 0.7 88
2019-10-24 23:00:00 9.5 3 Noroeste 5 Noroeste 0 934.3 0.8 85
2019-10-24 22:00:00 11 0 Calma 5 Sudeste 0 934.1 1.1 84
2019-10-24 21:00:00 11.5 3 Sur 7 Oeste 0 933.8 1 81
2019-10-24 20:00:00 12.2 6 Oeste 15 Oeste 0 933.5 1 80
2019-10-24 19:00:00 12.8 7 Oeste 17 Sudoeste 0 933 1 77
2019-10-24 18:00:00 13.6 11 Oeste 21 Sudoeste 0 932.8 0.8 75
2019-10-24 17:00:00 14.1 14 Oeste 19 Oeste 0 932.5 0.6 74
2019-10-24 16:00:00 15.2 12 Oeste 21 Sudoeste 0 932 0.2 70
2019-10-24 15:00:00 13.4 15 Oeste 23 Sudoeste 0 932 0.5 77
2019-10-24 14:00:00 13.3 14 Sudoeste 23 Oeste 0 931.9 1 78
2019-10-24 13:00:00 12.8 13 Sudoeste 24 Oeste 0 931.8 1.9 79
2019-10-24 12:00:00 10.9 15 Sudoeste 26 Sudoeste 0 931.5 2.6 87
2019-10-24 11:00:00 8.9 11 Sudoeste 19 Oeste 0 930.9 2.4 95
2019-10-24 10:00:00 6.8 9 Sudoeste 14 Sudoeste 0 929.9 1.8 95
2019-10-24 09:00:00 5.7 9 Sudoeste 13 Sudoeste 0 928.9 1.3 95
2019-10-24 08:00:00 4.7 5 Sudoeste 13 Oeste 0 928.5 1.4 95
2019-10-24 07:00:00 5.1 8 Sudoeste 18 Sudoeste 0.2 928.1 1.4 95
2019-10-24 06:00:00 6.4 10 Sudoeste 19 Oeste 0 927.6 1.1 95
2019-10-24 05:00:00 6.5 11 Sudoeste 17 Sudoeste 0 927.1 1.1 95
2019-10-24 04:00:00 5.7 9 Sudoeste 12 Sudoeste 0 926.7 0.8 95
2019-10-24 03:00:00 5.4 9 Oeste 13 Oeste 0 926.5 1.1 94
2019-10-24 02:00:00 6.1 7 Sudoeste 10 Sudoeste 0 926 1.5 94
2019-10-24 01:00:00 7 6 Oeste 15 Oeste 0 925.9 1.9 94
2019-10-24 00:00:00 7.6 8 Oeste 22 Oeste 0.2 925.4 1.7 95
2019-10-23 23:00:00 7.5 13 Oeste 21 Oeste 0 924.5 1.5 94
2019-10-23 22:00:00 7.4 11 Oeste 18 Oeste 0 924 1.6 94
2019-10-23 21:00:00 7.6 11 Oeste 21 Oeste 0.2 923.7 1.7 94
2019-10-23 20:00:00 7.9 12 Oeste 24 Oeste 0.2 923 1.3 94
2019-10-23 19:00:00 8.3 15 Oeste 23 Oeste 0.6 922.4 1.2 94
2019-10-23 18:00:00 8.5 14 Oeste 23 Oeste 1.8 922 1.3 94
2019-10-23 17:00:00 8.4 16 Oeste 29 Noroeste 1.6 921.7 1 94
2019-10-23 16:00:00 8.4 21 Noroeste 36 Noroeste 1.2 921.2 0.5 94
2019-10-23 15:00:00 8.4 24 Oeste 36 Noroeste 1 920.7 0.2 94
2019-10-23 14:00:00 8.4 22 Noroeste 32 Oeste 0.2 920.7 0.3 94
2019-10-23 13:00:00 8.4 24 Oeste 36 Oeste 0.2 920.7 0.4 94
2019-10-23 12:00:00 8 19 Oeste 30 Oeste 0.2 920.5 0.8 94
2019-10-23 11:00:00 7.7 21 Oeste 30 Oeste 0.4 920.4 1 94
2019-10-23 10:00:00 7.4 17 Oeste 26 Oeste 0.8 920.3 0.8 94
2019-10-23 09:00:00 7.2 16 Oeste 26 Oeste 1.4 919.7 0 94
2019-10-23 08:00:00 7.2 17 Oeste 24 Oeste 1.2 919.4 -1.2 94
2019-10-23 07:00:00 7.2 13 Oeste 20 Oeste 0.6 919.5 -1.6 93
2019-10-23 06:00:00 7.3 14 Oeste 21 Oeste 0.4 919.7 -1.9 93
2019-10-23 05:00:00 7.4 13 Oeste 18 Noroeste 0.8 920.6 -1.9 93
2019-10-23 04:00:00 7.4 10 Oeste 14 Oeste 0.4 921.1 -1.9 92
2019-10-23 03:00:00 7.4 10 Oeste 14 Oeste 0.4 921.6 -1.7 91
2019-10-23 02:00:00 7.5 5 Norte 8 Norte 0.6 922.5 -1.8 90
2019-10-23 01:00:00 7.6 5 Noroeste 10 Noroeste 0.2 923 -1.1 88
2019-10-23 00:00:00 7.8 2 Nordeste 15 Nordeste 0.2 923.3 -0.6 86
2019-10-22 23:00:00 8 9 Nordeste 22 Nordeste 0.2 924.3 0.2 85
2019-10-22 22:00:00 8.6 10 Nordeste 27 Nordeste 0.2 924.1 -0.1 78
2019-10-22 21:00:00 9.5 17 Nordeste 30 Nordeste 0 923.9 0 68
2019-10-22 20:00:00 9.6 8 Nordeste 27 Este 0 924.1 -0.3 71
2019-10-22 19:00:00 11.4 20 Este 41 Nordeste 0 924.2 -0.5 60
2019-10-22 18:00:00 12.8 17 Nordeste 36 Nordeste 0 923.9 -1.2 55
2019-10-22 17:00:00 13.6 23 Nordeste 44 Nordeste 0 924.4 -1.5 51
2019-10-22 16:00:00 13.6 22 Nordeste 39 Nordeste 0 924.7 -2.3 54
2019-10-22 15:00:00 13.5 23 Nordeste 38 Nordeste 0 925.1 -2.3 53
2019-10-22 14:00:00 13.7 21 Nordeste 34 Nordeste 0 925.9 -2.1 58
2019-10-22 13:00:00 11.5 20 Nordeste 31 Nordeste 0 927 -0.6 69
2019-10-22 12:00:00 9 14 Nordeste 27 Nordeste 0 927.4 0 78
2019-10-22 11:00:00 5.9 19 Nordeste 31 Nordeste 0 928 1 92
2019-10-22 10:00:00 4.5 17 Nordeste 24 Nordeste 0 927.6 0.3 94
2019-10-22 09:00:00 3.1 17 Nordeste 24 Nordeste 0 927.4 -0.4 93
2019-10-22 08:00:00 3.4 18 Nordeste 23 Nordeste 0 927 -0.5 93
2019-10-22 07:00:00 3.3 14 Nordeste 21 Nordeste 0 927.3 -0.3 93
2019-10-22 06:00:00 3.2 11 Nordeste 19 Este 0 927.8 -0.4 92
2019-10-22 05:00:00 3.6 13 Nordeste 18 Este 0 927.5 -0.9 91
2019-10-22 04:00:00 3.6 8 Este 16 Este 0 927.6 -1.2 89
2019-10-22 03:00:00 3.8 9 Nordeste 15 Este 0 928.2 -0.8 89
2019-10-22 02:00:00 4 10 Nordeste 15 Nordeste 0 928.4 -0.6 87
2019-10-22 01:00:00 4.3 10 Nordeste 14 Nordeste 0 928.8 0 86
2019-10-22 00:00:00 5.1 8 Este 11 Este 0 929 0.4 83
2019-10-21 23:00:00 5.7 6 Este 7 Este 0 929 0.9 82
2019-10-21 22:00:00 7.3 3 Oeste 8 Sudeste 0 928.8 1 76
2019-10-21 21:00:00 9 3 Sudoeste 12 Sudeste 0 928.6 1.2 73
2019-10-21 20:00:00 9.7 6 Sudeste 15 Sudeste 0 928.1 0.6 70
2019-10-21 19:00:00 10.4 8 Sudeste 19 Sudeste 0 927.8 0.2 66
2019-10-21 18:00:00 11.2 12 Sudeste 22 Sudeste 0 927.4 -0.7 60
2019-10-21 17:00:00 13 4 Sur 12 Sudoeste 0 927.5 -1.1 50
2019-10-21 16:00:00 13.8 5 Sudoeste 14 Oeste 0 927.6 -1.6 50
2019-10-21 15:00:00 15.2 6 Sur 17 Sudoeste 0 928.1 -1 44
2019-10-21 14:00:00 13.4 6 Sur 14 Sudoeste 0 928.6 -0.6 55
2019-10-21 13:00:00 11.3 4 Este 12 Sudeste 0 929.2 0.4 64
2019-10-21 12:00:00 10.7 3 Oeste 9 Norte 0 929.1 0.7 74
2019-10-21 11:00:00 7.7 5 Noroeste 10 Oeste 0 929.2 0.8 88
2019-10-21 10:00:00 6 2 Sudeste 5 Sur 0 928.8 0.8 95
2019-10-21 09:00:00 2.1 4 Sur 6 Sur 0 928.4 0.6 95
2019-10-21 08:00:00 1.6 3 Sudeste 6 Sur 0 928.4 0.7 95
2019-10-21 07:00:00 1.3 0 Calma 5 Sudoeste 0 928 0.4 94
2019-10-21 06:00:00 1.9 3 Sur 5 Sudeste 0 927.8 0.2 94
2019-10-21 05:00:00 2.3 3 Sur 7 Sudeste 0 927.7 0.2 93
2019-10-21 04:00:00 2.6 2 Oeste 6 Oeste 0 927.6 0.2 93
2019-10-21 03:00:00 3.2 4 Sur 5 Sur 0 927.6 0.4 92
2019-10-21 02:00:00 3.8 3 Sur 9 Oeste 0 927.5 0.4 92
2019-10-21 01:00:00 4 8 Oeste 9 Oeste 0 927.4 0.9 90
2019-10-21 00:00:00 4.7 0 Calma 5 Sudoeste 0 927.2 0.9 89
2019-10-20 23:00:00 5.3 3 Sur 9 Sudoeste 0 927.1 1.6 87
2019-10-20 22:00:00 6.3 5 Noroeste 13 Noroeste 0 926.5 1.8 82
2019-10-20 21:00:00 7.5 10 Noroeste 22 Noroeste 0 926.3 2 79
2019-10-20 20:00:00 8.4 7 Noroeste 10 Noroeste 0 925.5 1.4 76
2019-10-20 19:00:00 10.5 7 Noroeste 18 Noroeste 0 924.7 1 70
2019-10-20 18:00:00 11.5 8 Noroeste 14 Noroeste 0 924.3 0.9 77
2019-10-20 17:00:00 10.7 4 Sudeste 30 Oeste 2.4 924.1 0.5 68
2019-10-20 16:00:00 11.7 9 Noroeste 23 Oeste 0 923.7 0.2 67
2019-10-20 15:00:00 11.8 12 Noroeste 22 Noroeste 0 923.4 0.2 73
2019-10-20 14:00:00 9.9 13 Oeste 19 Oeste 0.2 923.6 0.8 89
2019-10-20 13:00:00 8.3 12 Oeste 22 Oeste 0.4 923.5 1.6 92
2019-10-20 12:00:00 7.7 14 Oeste 21 Oeste 0.6 923.2 2.6 92
2019-10-20 11:00:00 7.5 12 Noroeste 22 Oeste 0.4 922.8 3.1 92
2019-10-20 10:00:00 7 16 Oeste 25 Noroeste 0 921.9 2.9 92
2019-10-20 09:00:00 6.3 13 Oeste 20 Noroeste 0.2 920.6 2.4 92
2019-10-20 08:00:00 6.3 15 Oeste 27 Oeste 0 919.7 1.9 89
2019-10-20 07:00:00 6.4 17 Oeste 33 Oeste 0 919 1.3 87
2019-10-20 06:00:00 6.7 21 Oeste 30 Oeste 0 918.2 0.8 87
2019-10-20 05:00:00 7.2 14 Oeste 31 Noroeste 0 917.8 0.6 88
2019-10-20 04:00:00 7.5 22 Oeste 34 Oeste 0 917.7 0.6 89
2019-10-20 03:00:00 8.5 17 Oeste 28 Oeste 0.2 917.4 0.5 91
2019-10-20 02:00:00 8.7 20 Oeste 31 Sudoeste 0 917.2 0.8 89
2019-10-20 01:00:00 8.7 21 Sudoeste 33 Sudoeste 0 917.1 1.1 87
2019-10-20 00:00:00 8.8 21 Sudoeste 31 Oeste 0 916.9 1.1 88
2019-10-19 23:00:00 9.6 19 Oeste 32 Oeste 0 916.4 1.8 90
2019-10-19 22:00:00 9.6 22 Oeste 39 Oeste 0 916 1.7 90
2019-10-19 21:00:00 10.7 30 Oeste 50 Oeste 0 915.8 1.1 87
2019-10-19 20:00:00 12 23 Sudoeste 38 Sur 0 914.6 -0.6 84
2019-10-19 19:00:00 12.9 19 Sur 39 Sur 0 914.3 -1.6 84
2019-10-19 18:00:00 13.3 20 Sur 38 Sudoeste 0.2 914.7 -1.8 78
2019-10-19 17:00:00 13.1 16 Sur 38 Sur 0 915.2 -2.6 77
2019-10-19 16:00:00 13 22 Sur 43 Sur 0.4 915.9 -2.4 78
2019-10-19 15:00:00 13.7 27 Sur 58 Sur 0 916.5 -3 74
2019-10-19 14:00:00 13.3 31 Sudoeste 55 Sudoeste 0 917.8 -2.9 75
2019-10-19 13:00:00 13.4 26 Sur 53 Sur 0 918.3 -2.5 74
2019-10-19 12:00:00 11.8 15 Sur 37 Sudoeste 0 919.5 -1.5 83
2019-10-19 11:00:00 11 16 Sudoeste 34 Sur 0 920.7 -0.7 88
2019-10-19 10:00:00 11.2 20 Sudoeste 32 Sudoeste 0 920.8 -1 85
2019-10-19 09:00:00 10.4 12 Sur 30 Sur 0.2 921 -1.3 86
2019-10-19 08:00:00 10.5 20 Sudoeste 35 Sur 0 921.4 -1.6 84
2019-10-19 07:00:00 10.4 9 Sudoeste 21 Sudoeste 0 921.8 -1.7 85
2019-10-19 06:00:00 10.2 10 Sur 17 Sudoeste 0 922.3 -2.3 89
2019-10-19 05:00:00 10 10 Sudoeste 18 Sudoeste 0 923 -1.5 89
2019-10-19 04:00:00 10.3 10 Sur 27 Sudoeste 0 923.5 -1.4 88
2019-10-19 03:00:00 10.2 14 Sudoeste 26 Sudoeste 0 924.6 -1 87
2019-10-19 02:00:00 10.8 17 Sudoeste 30 Sudoeste 0 924.5 -1.4 86
2019-10-19 01:00:00 11.1 15 Sudoeste 24 Sudoeste 0 924.9 -1 86
2019-10-19 00:00:00 11.5 17 Sudoeste 30 Oeste 0 925.6 -0.5 86
2019-10-18 23:00:00 11.7 16 Sudoeste 26 Oeste 0 925.9 -0.5 82
2019-10-18 22:00:00 11.6 9 Sudoeste 13 Sudoeste 0 925.9 -0.2 80
2019-10-18 21:00:00 12.3 8 Sudoeste 19 Oeste 0 926.1 -0.5 75
2019-10-18 20:00:00 13.4 10 Sudoeste 23 Oeste 0 926.4 -0.6 71
2019-10-18 19:00:00 14.2 18 Oeste 30 Oeste 0 926.1 -1.1 67
2019-10-18 18:00:00 15.9 16 Oeste 26 Oeste 0 926.6 -1.1 62
2019-10-18 17:00:00 16.4 15 Oeste 27 Oeste 0 927 -1.7 61
2019-10-18 16:00:00 17.1 12 Oeste 27 Oeste 0 927.2 -2.2 61
2019-10-18 15:00:00 17.1 15 Oeste 27 Oeste 0 927.7 -1.7 61
2019-10-18 14:00:00 16.5 14 Oeste 23 Oeste 0 928.7 -0.8 63
2019-10-18 13:00:00 15.9 11 Oeste 19 Noroeste 0 929.4 -0.1 68
2019-10-18 12:00:00 15.2 11 Oeste 19 Oeste 0 929.4 0.6 79
2019-10-18 11:00:00 11.8 9 Oeste 18 Oeste 0 929.5 0.5 91
2019-10-18 10:00:00 10.9 8 Oeste 15 Oeste 0 929.5 1 94
2019-10-18 09:00:00 10.6 12 Oeste 22 Oeste 0 928.8 0.6 93
2019-10-18 08:00:00 11.1 13 Oeste 24 Oeste 0 929 1 94
2019-10-18 07:00:00 11.5 15 Oeste 27 Oeste 0 928.5 0.5 94
2019-10-18 06:00:00 12.3 16 Oeste 30 Oeste 0 928.2 0.3 94
2019-10-18 05:00:00 12.9 19 Oeste 32 Oeste 0 928 0.1 94
2019-10-18 04:00:00 13.9 16 Oeste 29 Oeste 0.2 928 -0.2 94
2019-10-18 03:00:00 14.7 20 Oeste 29 Sudoeste 0.2 927.9 -0.4 94
2019-10-18 02:00:00 15 19 Sudoeste 34 Sudoeste 0 927.9 -0.4 94
2019-10-18 01:00:00 15 21 Sudoeste 34 Sudoeste 0.6 928.2 -0.2 94
2019-10-18 00:00:00 15 21 Sudoeste 33 Sudoeste 0.2 928.3 -0.2 94